AirNav   Everest Fuels
 
 1594 users online  

7G2 Mc Clusky Municipal Airport
Mc Clusky, North Dakota, USA

GOING TO MC CLUSKY?


FAA INFORMATION EFFECTIVE 16 JULY 2020

Location

FAA Identifier: 7G2
Lat/Long: 47-27-43.3700N 100-29-14.0250W
47-27.722833N 100-29.233750W
47.4620472,-100.4872292
(estimated)
Elevation: 1900 ft. / 579 m (estimated)
Variation: 09E (1985)
From city: 2 miles SW of MC CLUSKY, ND
Time zone: UTC -5 (UTC -6 during Standard Time)
Zip code: 58463

Airport Operations

Airport use: Open to the public
Activation date: 09/1976
Control tower: no
ARTCC: MINNEAPOLIS CENTER
FSS: GRAND FORKS FLIGHT SERVICE STATION
NOTAMs facility: GFK (NOTAM-D service available)
Attendance: UNATNDD
Wind indicator: no
Segmented circle: no

Airport Communications

CTAF: 122.9

Airport Services

Parking: tiedowns
Airframe service: NONE
Powerplant service: NONE
Bottled oxygen: NONE
Bulk oxygen: NONE

Runway Information

Runway 13/31

Dimensions: 3136 x 80 ft. / 956 x 24 m
200 FT STWY NW END WHICH INCLUDES A 40 FT BY 40 FT APSH RUN-UP PAD; 200 FT STWY SE END WHICH INCLUDES A 80 FT BY 50 FT ASPH RUN-UP PAD.
Surface: turf, in fair condition
RY 13/31 HAS NUMEROUS GRASS CLUMPS. RY 13/31 200 FT STWY NW END WHICH INCLUDES A 40 FT APSH RUN-UP PAD; 200 FT STWY SE END WHICH INCLUDES A 80 FT BY 50 FT ASPH RUN-UP PAD.
RUNWAY 13  RUNWAY 31
Latitude: 47-27.931167N47-27.514500N
Longitude: 100-29.458000W100-29.009500W
Elevation: 1898.0 ft.1890.0 ft.
Traffic pattern: leftleft
Runway heading: 135 magnetic, 144 true315 magnetic, 324 true
Markings: nonenone
Runway end identifier lights: nono
Obstructions: none29 ft. pline, 860 ft. from runway, 29:1 slope to clear

Airport Ownership and Management from official FAA records

Ownership: Publicly-owned
Owner: MC CLUSKY MUNI ARPT AUTH
P O BOX 546
MC CLUSKY, ND 58463
Phone 701-363-2221
CHAIRMAN ORIN HOLEN.
Manager: ORRIN HOLEN
BOX 546
MC CLUSKY, ND 58463
Phone 701-363-2221
AFT 1700 CALL 701-363-2708.

Airport Operational Statistics

Aircraft based on the field: 1
Single engine airplanes: 1
    
Aircraft operations: avg 25/month *
67% transient general aviation
33% local general aviation
* for 12-month period ending 03 September 2018

Additional Remarks

CONFIRM IREG SNOW REMOVAL & WINTER CONDITIONS WITH AMGR PRIOR TO USE; SNOW REMOVAL EMERG ONLY; CALL 701-363-2221.
+15'WINDSOCK 150'FM CL PENETRATES 7:1 TRANSITIONAL SFC.
FOR CD CTC MINNEAPOLIS ARTCC AT 651-463-5588.

Instrument Procedures

There are no published instrument procedures at 7G2.

Some nearby airports with instrument procedures:

5H4 - Harvey Municipal Airport (30 nm NE)
D05 - Garrison Municipal Airport (40 nm W)
KBIS - Bismarck Municipal Airport (43 nm S)
Y19 - Mandan Municipal Airport (45 nm S)
KHZE - Mercer County Regional Airport (46 nm W)
 
Loc | Ops | Rwys | IFR | FBO | Links
Com | Nav | Svcs | Stats | Notes

Bismarck Aero Center
AirBoss

 
Area around 7G2 (Mc Clusky Municipal Airport)
 
Road maps at: MapQuest Bing Google
 
Aerial photo
WARNING: Photo may not be current or correct
Aerial photo of 7G2 (Mc Clusky Municipal Airport)
Do you have a better or more recent aerial photo of Mc Clusky Municipal Airport that you would like to share? If so, please send us your photo.

 
Sectional chart

 
Airport distance calculator
Flying to Mc Clusky Municipal Airport? Find the distance to fly.

From to 7G2

Sunrise and sunset
Times for 04-Aug-2020
 Local
(UTC-5)
 Zulu
(UTC)
Morning civil twilight05:5110:51
Sunrise06:2611:26
Sunset21:1002:10
Evening civil twilight21:4502:45

Current date and time
Zulu (UTC)  04-Aug-2020 16:44:32
Local (UTC-5)  04-Aug-2020 11:44:32
 
METAR
K5H4 
30nm NE 
041635Z AUTO 17010KT 10SM CLR 23/12 A3012 RMK AO2
KN60 
40nm W 
041552Z AUTO 13010G14KT 21/12 A3007 RMK AO1 SLP177 T02110117
KBIS 
43nm S 
041552Z 13009KT 10SM FEW070 24/12 A3007 RMK AO2 SLP177 T02390122
KY19 
45nm S 
041635Z AUTO 13010G16KT 10SM CLR 23/15 A3006 RMK AO2
KHZE 
46nm W 
041635Z AUTO 13009G15KT 10SM SCT055 SCT070 23/14 A3007 RMK AO2
TAF
KBIS 
43nm S 
041356Z 0414/0512 10008KT P6SM SCT100 BKN200 FM041700 15010KT P6SM VCSH SCT100 BKN200 FM050100 14010KT P6SM VCTS SCT040CB BKN120 FM050500 14005KT P6SM FEW035 SCT090
NOTAMs
Click for the latest NOTAMs
NOTAMs are issued by the DoD/FAA and will open in a separate window not controlled by AirNav.

 

 
 

Would you like to see your business listed on this page?

 If your business provides an interesting product or service to pilots, flight crews, aircraft, or users of the Mc Clusky Municipal Airport, you should consider listing it here.  To start the listing process, click on the button below
 
Add a business
 

Other Pages about Mc Clusky Municipal Airport

Update a link
 
Copyright © AirNav, LLC. All rights reserved. Privacy Policy  Contact